createdAt,value
2019-01-11T00:02:20.815Z,99197.81
2019-01-11T00:07:15.163Z,99196.27
2019-01-11T00:12:06.462Z,99193.95
2019-01-11T00:16:57.800Z,99181.56
2019-01-11T00:21:51.183Z,99197.89
2019-01-11T00:26:42.541Z,99210.66
2019-01-11T00:31:32.871Z,99205.40
2019-01-11T00:36:26.823Z,99186.73
2019-01-11T00:41:18.061Z,99163.45
2019-01-11T00:46:10.170Z,99145.80
2019-01-11T00:51:00.984Z,99158.41
2019-01-11T00:55:51.154Z,99166.32
2019-01-11T01:00:45.441Z,99232.30
2019-01-11T01:05:36.228Z,99223.59
2019-01-11T01:10:27.036Z,99229.20
2019-01-11T01:15:17.162Z,99232.06
2019-01-11T01:20:09.494Z,99254.40
2019-01-11T01:25:04.295Z,99266.14
2019-01-11T01:29:56.967Z,99272.31
2019-01-11T01:34:47.807Z,99271.08
2019-01-11T01:39:39.122Z,99270.63
2019-01-11T01:44:29.719Z,99285.95
2019-01-11T01:49:26.480Z,99294.31
2019-01-11T01:54:15.575Z,99313.80
2019-01-11T01:59:33.416Z,99315.66
2019-01-11T02:04:28.817Z,99308.56
2019-01-11T02:09:20.431Z,99310.13
2019-01-11T02:14:12.015Z,99328.48
2019-01-11T02:19:04.967Z,99343.95
2019-01-11T02:23:56.689Z,99344.13
2019-01-11T02:28:49.078Z,99350.81
2019-01-11T02:33:40.399Z,99352.17
2019-01-11T02:38:32.301Z,99341.61
2019-01-11T02:43:23.314Z,99354.38
2019-01-11T02:48:13.894Z,99361.42
2019-01-11T02:53:07.078Z,99377.88
2019-01-11T02:57:57.553Z,99387.45
2019-01-11T03:02:49.144Z,99388.97
2019-01-11T03:07:39.968Z,99377.18
2019-01-11T03:12:58.063Z,99388.86
2019-01-11T03:18:19.875Z,99360.50
2019-01-11T03:23:15.134Z,99379.81
2019-01-11T03:28:35.027Z,99394.27
2019-01-11T03:33:29.771Z,99411.86
2019-01-11T03:38:20.630Z,99403.42
2019-01-11T03:43:11.922Z,99422.95
2019-01-11T03:48:29.823Z,99445.56
2019-01-11T03:53:24.288Z,99449.33
2019-01-11T03:58:14.897Z,99452.45
2019-01-11T04:03:29.058Z,99449.94
2019-01-11T04:08:23.921Z,99474.43
2019-01-11T04:13:15.772Z,99497.25
2019-01-11T04:18:40.122Z,99505.13
2019-01-11T04:23:31.402Z,99512.00
2019-01-11T04:28:22.513Z,99521.10
2019-01-11T04:33:13.835Z,99523.38
2019-01-11T04:38:06.736Z,99526.33
2019-01-11T04:42:57.516Z,99527.06
2019-01-11T04:48:15.408Z,99531.78
2019-01-11T04:53:09.701Z,99553.67
2019-01-11T04:58:30.902Z,99561.52
2019-01-11T05:03:27.708Z,99584.34
2019-01-11T05:08:18.201Z,99579.09
2019-01-11T05:13:42.301Z,99570.45
2019-01-11T05:18:33.153Z,99570.86
2019-01-11T05:23:24.170Z,99582.55
2019-01-11T05:28:46.325Z,99584.95
2019-01-11T05:33:41.712Z,99607.99
2019-01-11T05:38:31.474Z,99630.70
2019-01-11T05:43:24.690Z,99632.00
2019-01-11T05:48:15.015Z,99628.16
2019-01-11T05:53:07.314Z,99644.91
2019-01-11T05:58:19.042Z,99658.58
2019-01-11T06:03:10.630Z,99664.72
2019-01-11T06:08:06.924Z,99663.88
2019-01-11T06:12:57.657Z,99667.03
2019-01-11T06:18:15.958Z,99664.82
2019-01-11T06:23:07.691Z,99669.93
2019-01-11T06:27:58.610Z,99659.52
2019-01-11T06:32:51.353Z,99677.77
2019-01-11T06:37:42.489Z,99707.55
2019-01-11T06:42:34.560Z,99723.03
2019-01-11T06:47:24.902Z,99751.94
2019-01-11T06:52:17.146Z,99754.56
2019-01-11T06:57:10.032Z,99774.45
2019-01-11T07:02:06.340Z,99781.88
2019-01-11T07:06:58.143Z,99789.09
2019-01-11T07:11:48.964Z,99784.65
2019-01-11T07:16:41.558Z,99789.94
2019-01-11T07:21:33.169Z,99815.88
2019-01-11T07:26:23.727Z,99825.10
2019-01-11T07:31:17.357Z,99835.58
2019-01-11T07:36:42.234Z,99836.84
2019-01-11T07:41:35.103Z,99841.05
2019-01-11T07:46:26.944Z,99843.09
2019-01-11T07:51:19.028Z,99840.87
2019-01-11T07:56:10.372Z,99837.56
2019-01-11T08:01:07.303Z,99832.74
2019-01-11T08:05:59.467Z,99836.73
2019-01-11T08:10:53.403Z,99833.50
2019-01-11T08:15:54.009Z,99830.61
2019-01-11T08:20:56.010Z,99831.92
2019-01-11T08:25:44.230Z,99829.02
2019-01-11T08:30:36.592Z,99844.62
2019-01-11T08:35:31.279Z,99865.36
2019-01-11T08:40:26.121Z,99889.91
2019-01-11T08:45:18.199Z,99893.87
2019-01-11T08:50:15.190Z,99924.14
2019-01-11T08:55:07.024Z,99914.73
2019-01-11T08:59:59.695Z,99900.41
2019-01-11T09:04:51.915Z,99898.16
2019-01-11T09:09:42.335Z,99899.91
2019-01-11T09:15:00.266Z,99902.61
2019-01-11T09:19:52.158Z,99905.66
2019-01-11T09:24:42.427Z,99918.39
2019-01-11T09:29:35.751Z,99926.64
2019-01-11T09:34:26.113Z,99934.20
2019-01-11T09:39:15.862Z,99921.78
2019-01-11T09:44:06.724Z,99917.73
2019-01-11T09:48:57.291Z,99901.45
2019-01-11T09:53:48.077Z,99901.72
2019-01-11T09:58:39.200Z,99899.53
2019-01-11T10:03:31.763Z,99893.94
2019-01-11T10:08:22.152Z,99897.42
2019-01-11T10:13:13.426Z,99897.67
2019-01-11T10:18:04.983Z,99896.48
2019-01-11T10:22:57.886Z,99878.90
2019-01-11T10:27:50.709Z,99890.67
2019-01-11T10:32:42.853Z,99896.69
2019-01-11T10:37:33.778Z,99908.60
2019-01-11T10:42:24.714Z,99890.92
2019-01-11T10:47:16.922Z,99886.87
2019-01-11T10:52:08.432Z,99881.50
2019-01-11T10:56:58.994Z,99882.97
2019-01-11T11:01:52.072Z,99899.88
2019-01-11T11:06:42.907Z,99908.42
2019-01-11T11:11:33.753Z,99898.98
2019-01-11T11:16:24.314Z,99901.00
2019-01-11T11:21:19.444Z,99902.36
2019-01-11T11:26:09.817Z,99908.63
2019-01-11T11:30:59.481Z,99904.98
2019-01-11T11:35:50.237Z,99895.56
2019-01-11T11:40:44.423Z,99898.51
2019-01-11T11:45:35.341Z,99889.20
2019-01-11T11:50:27.858Z,99902.99
2019-01-11T11:55:21.031Z,99903.37
2019-01-11T12:00:13.678Z,99914.42
2019-01-11T12:05:04.021Z,99918.48
2019-01-11T12:09:56.988Z,99923.91
2019-01-11T12:14:48.221Z,99929.08
2019-01-11T12:19:41.474Z,99922.16
2019-01-11T12:24:32.671Z,99910.03
2019-01-11T12:29:23.728Z,99926.31
2019-01-11T12:34:16.381Z,99926.76
2019-01-11T12:39:08.255Z,99918.61
2019-01-11T12:43:59.320Z,99916.84
2019-01-11T12:48:49.554Z,99916.17
2019-01-11T12:53:39.906Z,99933.00
2019-01-11T12:58:30.680Z,99938.72
2019-01-11T13:03:21.268Z,99952.95
2019-01-11T13:08:14.952Z,99954.47
2019-01-11T13:13:06.971Z,99956.54
2019-01-11T13:17:59.592Z,99960.26
2019-01-11T13:22:50.671Z,99969.20
2019-01-11T13:27:41.097Z,99969.99
2019-01-11T13:32:31.291Z,99982.65
2019-01-11T13:37:22.140Z,99975.91
2019-01-11T13:42:13.689Z,99980.99
2019-01-11T13:47:04.266Z,99986.44
2019-01-11T13:51:54.558Z,99980.62
2019-01-11T13:56:44.887Z,99986.96
2019-01-11T14:01:36.447Z,100001.04
2019-01-11T14:06:27.640Z,99989.76
2019-01-11T14:11:19.196Z,99996.35
2019-01-11T14:16:12.275Z,100016.41
2019-01-11T14:21:03.604Z,100020.02
2019-01-11T14:25:53.537Z,100020.25
2019-01-11T14:30:44.791Z,100021.58
2019-01-11T14:35:35.323Z,100026.14
2019-01-11T14:40:26.415Z,100023.09
2019-01-11T14:45:21.620Z,100030.69
2019-01-11T14:50:15.225Z,100033.68
2019-01-11T14:55:14.923Z,100032.69
2019-01-11T15:00:07.810Z,100026.84
2019-01-11T15:04:58.585Z,100044.88
2019-01-11T15:10:12.439Z,100059.44
2019-01-11T15:15:11.831Z,100058.96
2019-01-11T15:20:06.068Z,100073.52
2019-01-11T15:24:59.282Z,100077.24
2019-01-11T15:29:52.272Z,100089.72
2019-01-11T15:34:45.088Z,100082.88
2019-01-11T15:39:41.540Z,100087.55
2019-01-11T15:44:33.552Z,100099.48
2019-01-11T15:49:27.435Z,100095.41
2019-01-11T15:54:19.065Z,100100.80
2019-01-11T15:59:10.357Z,100114.59
2019-01-11T16:04:09.104Z,100107.16
2019-01-11T16:09:39.610Z,100124.71
2019-01-11T16:15:07.036Z,100136.39
2019-01-11T16:20:02.112Z,100140.75
2019-01-11T16:25:04.722Z,100146.96
2019-01-11T16:30:06.030Z,100149.72
2019-01-11T16:35:05.966Z,100153.30
2019-01-11T16:40:07.013Z,100155.61
2019-01-11T16:44:58.781Z,100147.66
2019-01-11T16:49:59.082Z,100156.07
2019-01-11T16:55:01.744Z,100162.25
2019-01-11T16:59:56.911Z,100158.77
2019-01-11T17:04:54.882Z,100174.94
2019-01-11T17:09:57.736Z,100174.45
2019-01-11T17:15:04.459Z,100181.91
2019-01-11T17:20:07.748Z,100193.76
2019-01-11T17:25:00.631Z,100193.76
2019-01-11T17:29:55.989Z,100187.73
2019-01-11T17:34:48.676Z,100187.73
2019-01-11T17:39:39.490Z,100188.25
2019-01-11T17:44:30.920Z,100188.33
2019-01-11T17:49:23.690Z,100194.21
2019-01-11T17:54:13.960Z,100202.53
2019-01-11T17:59:06.121Z,100204.67
2019-01-11T18:03:58.412Z,100210.37
2019-01-11T18:08:49.976Z,100225.36
2019-01-11T18:13:42.650Z,100224.61
2019-01-11T18:18:36.406Z,100224.61
2019-01-11T18:23:30.283Z,100237.86
2019-01-11T18:28:21.268Z,100250.84
2019-01-11T18:33:12.335Z,100254.99
2019-01-11T18:38:04.214Z,100252.86
2019-01-11T18:43:26.358Z,100254.22
2019-01-11T18:48:55.691Z,100260.48
2019-01-11T18:54:34.613Z,100266.55
2019-01-11T19:00:11.696Z,100268.91
2019-01-11T19:05:43.898Z,100277.02
2019-01-11T19:11:19.655Z,100277.02
2019-01-11T19:16:56.461Z,100274.91
2019-01-11T19:22:12.004Z,100279.51
2019-01-11T19:28:10.480Z,100285.87
2019-01-11T19:33:35.042Z,100285.87
2019-01-11T19:51:03.480Z,100289.38
2019-01-11T20:02:38.722Z,100280.80
2019-01-11T20:19:14.393Z,100282.66
2019-01-11T20:24:36.898Z,100284.56
2019-01-11T20:29:58.042Z,100270.34
2019-01-11T20:35:34.452Z,100270.53
2019-01-11T20:41:15.739Z,100270.53
2019-01-11T20:46:30.361Z,100265.31
2019-01-11T20:51:51.696Z,100262.88
2019-01-11T20:57:03.404Z,100267.73
2019-01-11T21:02:35.661Z,100259.86
2019-01-11T21:08:00.023Z,100263.06
2019-01-11T21:13:16.041Z,100251.94
2019-01-11T21:18:42.315Z,100243.94
2019-01-11T21:24:17.027Z,100229.13
2019-01-11T21:29:46.097Z,100230.57
2019-01-11T21:35:26.279Z,100233.59
2019-01-11T21:41:19.999Z,100228.50
2019-01-11T21:52:57.357Z,100220.46
2019-01-11T21:57:59.709Z,100235.31
2019-01-11T22:03:44.574Z,100243.20
2019-01-11T22:20:51.878Z,100253.75
2019-01-11T22:25:43.720Z,100245.88
2019-01-11T22:30:39.056Z,100260.72
2019-01-11T22:36:39.563Z,100251.97
2019-01-11T22:41:37.807Z,100241.95
2019-01-11T22:46:29.403Z,100232.48
2019-01-11T22:51:28.672Z,100231.77
2019-01-11T22:56:22.308Z,100221.56
2019-01-11T23:01:41.311Z,100212.75
2019-01-11T23:06:55.424Z,100215.55
2019-01-11T23:12:36.650Z,100218.23
2019-01-11T23:17:59.663Z,100226.89
2019-01-11T23:22:49.760Z,100209.84
2019-01-11T23:27:41.136Z,100213.48
2019-01-11T23:32:32.699Z,100217.34
2019-01-11T23:37:24.031Z,100221.33
2019-01-11T23:42:15.356Z,100220.94
2019-01-11T23:47:06.172Z,100228.22
2019-01-11T23:51:56.449Z,100234.45
2019-01-11T23:56:47.276Z,100246.96
